sensor_id;sensor_type;location;lat;lon;timestamp;P1;durP1;ratioP1;P2;durP2;ratioP2
20034;SDS011;10178;48.034;9.800;2023-03-01T00:01:23;17.23;;;10.47;;
20034;SDS011;10178;48.034;9.800;2023-03-01T00:03:51;19.27;;;10.97;;
20034;SDS011;10178;48.034;9.800;2023-03-01T00:06:17;17.80;;;10.43;;
20034;SDS011;10178;48.034;9.800;2023-03-01T00:08:44;16.63;;;10.60;;
20034;SDS011;10178;48.034;9.800;2023-03-01T00:11:17;15.23;;;10.40;;
20034;SDS011;10178;48.034;9.800;2023-03-01T00:13:46;16.07;;;9.80;;
20034;SDS011;10178;48.034;9.800;2023-03-01T00:16:13;17.10;;;10.83;;
20034;SDS011;10178;48.034;9.800;2023-03-01T00:18:41;16.10;;;10.80;;
20034;SDS011;10178;48.034;9.800;2023-03-01T00:21:06;20.90;;;11.27;;
20034;SDS011;10178;48.034;9.800;2023-03-01T00:23:36;15.03;;;10.60;;
20034;SDS011;10178;48.034;9.800;2023-03-01T00:26:04;16.43;;;10.77;;
20034;SDS011;10178;48.034;9.800;2023-03-01T00:28:31;18.10;;;11.33;;
20034;SDS011;10178;48.034;9.800;2023-03-01T00:31:02;18.27;;;11.07;;
20034;SDS011;10178;48.034;9.800;2023-03-01T00:33:32;17.97;;;10.80;;
20034;SDS011;10178;48.034;9.800;2023-03-01T00:35:58;18.83;;;11.30;;
20034;SDS011;10178;48.034;9.800;2023-03-01T00:38:24;18.10;;;10.73;;
20034;SDS011;10178;48.034;9.800;2023-03-01T00:40:50;17.83;;;11.20;;
20034;SDS011;10178;48.034;9.800;2023-03-01T00:43:15;17.83;;;11.07;;
20034;SDS011;10178;48.034;9.800;2023-03-01T00:45:41;18.40;;;11.53;;
20034;SDS011;10178;48.034;9.800;2023-03-01T00:48:06;18.47;;;11.40;;
20034;SDS011;10178;48.034;9.800;2023-03-01T00:50:32;18.03;;;11.20;;
20034;SDS011;10178;48.034;9.800;2023-03-01T00:52:58;17.73;;;11.67;;
20034;SDS011;10178;48.034;9.800;2023-03-01T00:55:23;18.73;;;11.70;;
20034;SDS011;10178;48.034;9.800;2023-03-01T00:57:49;18.77;;;11.80;;
20034;SDS011;10178;48.034;9.800;2023-03-01T01:00:15;17.27;;;11.10;;
20034;SDS011;10178;48.034;9.800;2023-03-01T01:02:41;17.93;;;11.57;;
20034;SDS011;10178;48.034;9.800;2023-03-01T01:05:07;18.53;;;11.57;;
20034;SDS011;10178;48.034;9.800;2023-03-01T01:07:33;18.00;;;11.90;;
20034;SDS011;10178;48.034;9.800;2023-03-01T01:09:59;21.23;;;11.47;;
20034;SDS011;10178;48.034;9.800;2023-03-01T01:12:24;16.17;;;10.93;;
20034;SDS011;10178;48.034;9.800;2023-03-01T01:14:50;18.57;;;11.20;;
20034;SDS011;10178;48.034;9.800;2023-03-01T01:17:15;18.23;;;11.43;;
20034;SDS011;10178;48.034;9.800;2023-03-01T01:19:41;16.80;;;11.37;;
20034;SDS011;10178;48.034;9.800;2023-03-01T01:22:06;17.40;;;11.23;;
20034;SDS011;10178;48.034;9.800;2023-03-01T01:24:32;19.17;;;11.73;;
20034;SDS011;10178;48.034;9.800;2023-03-01T01:26:58;17.17;;;11.10;;
20034;SDS011;10178;48.034;9.800;2023-03-01T01:29:23;20.00;;;12.17;;
20034;SDS011;10178;48.034;9.800;2023-03-01T01:31:49;20.00;;;12.60;;
20034;SDS011;10178;48.034;9.800;2023-03-01T01:34:16;18.60;;;11.33;;
20034;SDS011;10178;48.034;9.800;2023-03-01T01:36:43;16.73;;;11.17;;
20034;SDS011;10178;48.034;9.800;2023-03-01T01:39:09;18.00;;;11.57;;
20034;SDS011;10178;48.034;9.800;2023-03-01T01:41:38;18.80;;;11.93;;
20034;SDS011;10178;48.034;9.800;2023-03-01T01:46:48;21.53;;;11.80;;
20034;SDS011;10178;48.034;9.800;2023-03-01T01:51:47;17.33;;;11.03;;
20034;SDS011;10178;48.034;9.800;2023-03-01T01:54:20;19.87;;;11.53;;
20034;SDS011;10178;48.034;9.800;2023-03-01T01:56:57;18.57;;;11.27;;
20034;SDS011;10178;48.034;9.800;2023-03-01T01:59:26;20.47;;;12.00;;
20034;SDS011;10178;48.034;9.800;2023-03-01T02:01:55;19.30;;;12.27;;
20034;SDS011;10178;48.034;9.800;2023-03-01T02:04:24;18.27;;;12.23;;
20034;SDS011;10178;48.034;9.800;2023-03-01T02:09:40;20.13;;;12.67;;
20034;SDS011;10178;48.034;9.800;2023-03-01T02:12:09;21.00;;;12.80;;
20034;SDS011;10178;48.034;9.800;2023-03-01T02:14:34;18.07;;;12.20;;
20034;SDS011;10178;48.034;9.800;2023-03-01T02:17:00;16.67;;;11.60;;
20034;SDS011;10178;48.034;9.800;2023-03-01T02:19:30;21.83;;;12.03;;
20034;SDS011;10178;48.034;9.800;2023-03-01T02:25:20;22.13;;;13.07;;
20034;SDS011;10178;48.034;9.800;2023-03-01T02:27:55;19.60;;;12.70;;
20034;SDS011;10178;48.034;9.800;2023-03-01T02:30:22;19.57;;;13.10;;
20034;SDS011;10178;48.034;9.800;2023-03-01T02:32:49;21.37;;;12.83;;
20034;SDS011;10178;48.034;9.800;2023-03-01T02:35:17;22.27;;;13.37;;
20034;SDS011;10178;48.034;9.800;2023-03-01T02:37:44;19.63;;;12.53;;
20034;SDS011;10178;48.034;9.800;2023-03-01T02:40:14;18.53;;;11.90;;
20034;SDS011;10178;48.034;9.800;2023-03-01T02:42:46;19.30;;;12.37;;
20034;SDS011;10178;48.034;9.800;2023-03-01T02:45:15;20.53;;;13.07;;
20034;SDS011;10178;48.034;9.800;2023-03-01T02:47:41;21.77;;;13.03;;
20034;SDS011;10178;48.034;9.800;2023-03-01T02:50:25;26.37;;;14.10;;
20034;SDS011;10178;48.034;9.800;2023-03-01T02:53:21;18.83;;;11.30;;
20034;SDS011;10178;48.034;9.800;2023-03-01T02:55:53;22.00;;;13.13;;
20034;SDS011;10178;48.034;9.800;2023-03-01T02:58:19;21.07;;;13.27;;
20034;SDS011;10178;48.034;9.800;2023-03-01T03:00:45;19.80;;;12.20;;
20034;SDS011;10178;48.034;9.800;2023-03-01T03:03:15;23.27;;;13.37;;
20034;SDS011;10178;48.034;9.800;2023-03-01T03:05:44;24.23;;;13.97;;
20034;SDS011;10178;48.034;9.800;2023-03-01T03:08:09;20.73;;;13.00;;
20034;SDS011;10178;48.034;9.800;2023-03-01T03:10:37;21.63;;;13.13;;
20034;SDS011;10178;48.034;9.800;2023-03-01T03:13:06;20.83;;;12.33;;
20034;SDS011;10178;48.034;9.800;2023-03-01T03:15:33;19.23;;;12.50;;
20034;SDS011;10178;48.034;9.800;2023-03-01T03:18:02;19.00;;;12.60;;
20034;SDS011;10178;48.034;9.800;2023-03-01T03:20:29;22.43;;;12.70;;
20034;SDS011;10178;48.034;9.800;2023-03-01T03:22:55;22.80;;;13.13;;
20034;SDS011;10178;48.034;9.800;2023-03-01T03:25:23;21.57;;;13.23;;
20034;SDS011;10178;48.034;9.800;2023-03-01T03:27:50;22.63;;;13.13;;
20034;SDS011;10178;48.034;9.800;2023-03-01T03:30:22;24.43;;;14.07;;
20034;SDS011;10178;48.034;9.800;2023-03-01T03:32:52;23.57;;;13.67;;
20034;SDS011;10178;48.034;9.800;2023-03-01T03:35:25;23.57;;;13.43;;
20034;SDS011;10178;48.034;9.800;2023-03-01T03:37:56;20.60;;;13.07;;
20034;SDS011;10178;48.034;9.800;2023-03-01T03:40:40;19.40;;;12.40;;
20034;SDS011;10178;48.034;9.800;2023-03-01T03:43:12;21.07;;;13.13;;
20034;SDS011;10178;48.034;9.800;2023-03-01T03:45:40;22.50;;;13.73;;
20034;SDS011;10178;48.034;9.800;2023-03-01T03:48:06;24.80;;;15.57;;
20034;SDS011;10178;48.034;9.800;2023-03-01T03:50:34;22.23;;;13.60;;
20034;SDS011;10178;48.034;9.800;2023-03-01T03:53:01;22.23;;;12.73;;
20034;SDS011;10178;48.034;9.800;2023-03-01T03:55:31;22.87;;;13.40;;
20034;SDS011;10178;48.034;9.800;2023-03-01T03:57:59;19.33;;;12.77;;
20034;SDS011;10178;48.034;9.800;2023-03-01T04:00:31;23.17;;;13.60;;
20034;SDS011;10178;48.034;9.800;2023-03-01T04:02:58;23.30;;;14.40;;
20034;SDS011;10178;48.034;9.800;2023-03-01T04:05:24;22.53;;;13.27;;
20034;SDS011;10178;48.034;9.800;2023-03-01T04:07:50;25.70;;;15.47;;
20034;SDS011;10178;48.034;9.800;2023-03-01T04:10:26;20.97;;;13.53;;
20034;SDS011;10178;48.034;9.800;2023-03-01T04:12:52;25.10;;;15.50;;
20034;SDS011;10178;48.034;9.800;2023-03-01T04:15:18;24.97;;;14.53;;
20034;SDS011;10178;48.034;9.800;2023-03-01T04:17:44;21.47;;;13.10;;
20034;SDS011;10178;48.034;9.800;2023-03-01T04:20:12;21.90;;;13.33;;
20034;SDS011;10178;48.034;9.800;2023-03-01T04:22:42;20.77;;;13.67;;
20034;SDS011;10178;48.034;9.800;2023-03-01T04:25:08;23.97;;;14.43;;
20034;SDS011;10178;48.034;9.800;2023-03-01T04:27:34;22.13;;;13.50;;
20034;SDS011;10178;48.034;9.800;2023-03-01T04:30:01;24.77;;;14.40;;
20034;SDS011;10178;48.034;9.800;2023-03-01T04:32:30;23.03;;;14.00;;
20034;SDS011;10178;48.034;9.800;2023-03-01T04:34:56;23.20;;;14.57;;
20034;SDS011;10178;48.034;9.800;2023-03-01T04:37:22;21.93;;;13.90;;
20034;SDS011;10178;48.034;9.800;2023-03-01T04:39:48;24.97;;;14.67;;
20034;SDS011;10178;48.034;9.800;2023-03-01T04:42:14;21.67;;;13.63;;
20034;SDS011;10178;48.034;9.800;2023-03-01T04:44:40;22.37;;;13.63;;
20034;SDS011;10178;48.034;9.800;2023-03-01T04:47:06;21.47;;;13.87;;
20034;SDS011;10178;48.034;9.800;2023-03-01T04:49:31;22.57;;;14.37;;
20034;SDS011;10178;48.034;9.800;2023-03-01T04:51:57;21.30;;;13.97;;
20034;SDS011;10178;48.034;9.800;2023-03-01T04:54:26;22.90;;;14.07;;
20034;SDS011;10178;48.034;9.800;2023-03-01T04:56:59;25.33;;;14.73;;
20034;SDS011;10178;48.034;9.800;2023-03-01T04:59:25;25.27;;;14.70;;
20034;SDS011;10178;48.034;9.800;2023-03-01T05:01:51;24.33;;;15.27;;
20034;SDS011;10178;48.034;9.800;2023-03-01T05:04:20;21.03;;;13.53;;
20034;SDS011;10178;48.034;9.800;2023-03-01T05:06:49;25.27;;;15.20;;
20034;SDS011;10178;48.034;9.800;2023-03-01T05:09:16;23.63;;;14.53;;
20034;SDS011;10178;48.034;9.800;2023-03-01T05:11:41;26.07;;;15.23;;
20034;SDS011;10178;48.034;9.800;2023-03-01T05:14:07;23.33;;;14.80;;
20034;SDS011;10178;48.034;9.800;2023-03-01T05:16:34;24.70;;;15.53;;
20034;SDS011;10178;48.034;9.800;2023-03-01T05:19:01;27.10;;;15.20;;
20034;SDS011;10178;48.034;9.800;2023-03-01T05:21:36;25.40;;;15.10;;
20034;SDS011;10178;48.034;9.800;2023-03-01T05:24:22;23.20;;;13.93;;
20034;SDS011;10178;48.034;9.800;2023-03-01T05:26:48;26.97;;;15.63;;
20034;SDS011;10178;48.034;9.800;2023-03-01T05:29:14;22.83;;;14.37;;
20034;SDS011;10178;48.034;9.800;2023-03-01T05:31:40;24.50;;;14.70;;
20034;SDS011;10178;48.034;9.800;2023-03-01T05:34:06;23.60;;;14.83;;
20034;SDS011;10178;48.034;9.800;2023-03-01T05:36:31;22.70;;;14.67;;
20034;SDS011;10178;48.034;9.800;2023-03-01T05:38:57;25.30;;;15.77;;
20034;SDS011;10178;48.034;9.800;2023-03-01T05:41:22;23.13;;;14.27;;
20034;SDS011;10178;48.034;9.800;2023-03-01T05:43:48;24.73;;;14.97;;
20034;SDS011;10178;48.034;9.800;2023-03-01T05:46:14;26.77;;;14.67;;
20034;SDS011;10178;48.034;9.800;2023-03-01T05:48:40;26.40;;;15.10;;
20034;SDS011;10178;48.034;9.800;2023-03-01T05:51:05;25.47;;;16.23;;
20034;SDS011;10178;48.034;9.800;2023-03-01T05:53:31;26.00;;;15.07;;
20034;SDS011;10178;48.034;9.800;2023-03-01T05:55:57;25.67;;;15.27;;
20034;SDS011;10178;48.034;9.800;2023-03-01T05:58:23;24.00;;;14.70;;
20034;SDS011;10178;48.034;9.800;2023-03-01T06:00:49;24.50;;;14.77;;
20034;SDS011;10178;48.034;9.800;2023-03-01T06:03:15;23.17;;;14.20;;
20034;SDS011;10178;48.034;9.800;2023-03-01T06:05:42;24.03;;;14.87;;
20034;SDS011;10178;48.034;9.800;2023-03-01T06:08:09;25.23;;;15.77;;
20034;SDS011;10178;48.034;9.800;2023-03-01T06:10:35;26.03;;;15.20;;
20034;SDS011;10178;48.034;9.800;2023-03-01T06:13:01;23.70;;;14.60;;
20034;SDS011;10178;48.034;9.800;2023-03-01T06:15:27;25.33;;;14.90;;
20034;SDS011;10178;48.034;9.800;2023-03-01T06:17:53;24.57;;;15.73;;
20034;SDS011;10178;48.034;9.800;2023-03-01T06:20:22;25.77;;;15.13;;
20034;SDS011;10178;48.034;9.800;2023-03-01T06:22:50;23.67;;;13.27;;
20034;SDS011;10178;48.034;9.800;2023-03-01T06:25:17;27.93;;;17.30;;
20034;SDS011;10178;48.034;9.800;2023-03-01T06:27:45;24.60;;;15.63;;
20034;SDS011;10178;48.034;9.800;2023-03-01T06:30:12;23.10;;;14.83;;
20034;SDS011;10178;48.034;9.800;2023-03-01T06:32:39;23.13;;;15.33;;
20034;SDS011;10178;48.034;9.800;2023-03-01T06:35:08;25.33;;;15.73;;
20034;SDS011;10178;48.034;9.800;2023-03-01T06:37:35;24.97;;;15.23;;
20034;SDS011;10178;48.034;9.800;2023-03-01T06:40:02;28.07;;;16.20;;
20034;SDS011;10178;48.034;9.800;2023-03-01T06:42:36;26.13;;;15.63;;
20034;SDS011;10178;48.034;9.800;2023-03-01T06:45:03;25.50;;;16.10;;
20034;SDS011;10178;48.034;9.800;2023-03-01T06:47:30;26.87;;;16.03;;
20034;SDS011;10178;48.034;9.800;2023-03-01T06:49:56;23.57;;;15.20;;
20034;SDS011;10178;48.034;9.800;2023-03-01T06:52:21;28.80;;;17.77;;
20034;SDS011;10178;48.034;9.800;2023-03-01T06:54:47;25.97;;;14.70;;
20034;SDS011;10178;48.034;9.800;2023-03-01T06:57:12;24.87;;;15.50;;
20034;SDS011;10178;48.034;9.800;2023-03-01T06:59:38;25.83;;;16.27;;
20034;SDS011;10178;48.034;9.800;2023-03-01T07:02:04;25.90;;;15.67;;
20034;SDS011;10178;48.034;9.800;2023-03-01T07:04:29;28.43;;;16.53;;
20034;SDS011;10178;48.034;9.800;2023-03-01T07:06:55;26.17;;;16.00;;
20034;SDS011;10178;48.034;9.800;2023-03-01T07:09:22;28.13;;;16.33;;
20034;SDS011;10178;48.034;9.800;2023-03-01T07:11:48;25.97;;;15.90;;
20034;SDS011;10178;48.034;9.800;2023-03-01T07:14:14;27.00;;;16.33;;
20034;SDS011;10178;48.034;9.800;2023-03-01T07:16:40;27.63;;;15.80;;
20034;SDS011;10178;48.034;9.800;2023-03-01T07:19:05;25.20;;;16.47;;
20034;SDS011;10178;48.034;9.800;2023-03-01T07:21:31;28.93;;;15.97;;
20034;SDS011;10178;48.034;9.800;2023-03-01T07:23:57;26.17;;;15.80;;
20034;SDS011;10178;48.034;9.800;2023-03-01T07:26:22;26.53;;;15.67;;
20034;SDS011;10178;48.034;9.800;2023-03-01T07:28:48;25.13;;;14.77;;
20034;SDS011;10178;48.034;9.800;2023-03-01T07:31:13;26.43;;;15.47;;
20034;SDS011;10178;48.034;9.800;2023-03-01T07:33:39;28.07;;;16.50;;
20034;SDS011;10178;48.034;9.800;2023-03-01T07:36:05;29.27;;;16.43;;
20034;SDS011;10178;48.034;9.800;2023-03-01T07:38:31;25.57;;;15.87;;
20034;SDS011;10178;48.034;9.800;2023-03-01T07:40:58;25.43;;;15.37;;
20034;SDS011;10178;48.034;9.800;2023-03-01T07:43:25;26.80;;;15.30;;
20034;SDS011;10178;48.034;9.800;2023-03-01T07:45:51;24.87;;;15.97;;
20034;SDS011;10178;48.034;9.800;2023-03-01T07:48:17;25.13;;;15.90;;
20034;SDS011;10178;48.034;9.800;2023-03-01T07:50:43;25.70;;;16.27;;
20034;SDS011;10178;48.034;9.800;2023-03-01T07:53:09;26.10;;;15.20;;
20034;SDS011;10178;48.034;9.800;2023-03-01T07:55:35;25.03;;;16.37;;
20034;SDS011;10178;48.034;9.800;2023-03-01T07:58:01;26.23;;;15.63;;
20034;SDS011;10178;48.034;9.800;2023-03-01T08:00:26;24.93;;;14.63;;
20034;SDS011;10178;48.034;9.800;2023-03-01T08:02:52;23.90;;;15.23;;
20034;SDS011;10178;48.034;9.800;2023-03-01T08:05:18;28.27;;;15.33;;
20034;SDS011;10178;48.034;9.800;2023-03-01T08:07:44;28.87;;;17.17;;
20034;SDS011;10178;48.034;9.800;2023-03-01T08:10:09;26.00;;;16.10;;
20034;SDS011;10178;48.034;9.800;2023-03-01T08:12:35;24.50;;;15.23;;
20034;SDS011;10178;48.034;9.800;2023-03-01T08:15:01;25.53;;;15.83;;
20034;SDS011;10178;48.034;9.800;2023-03-01T08:17:27;22.63;;;14.70;;
20034;SDS011;10178;48.034;9.800;2023-03-01T08:19:52;25.00;;;13.63;;
20034;SDS011;10178;48.034;9.800;2023-03-01T08:22:18;26.53;;;16.37;;
20034;SDS011;10178;48.034;9.800;2023-03-01T08:24:43;31.87;;;16.90;;
20034;SDS011;10178;48.034;9.800;2023-03-01T08:27:09;26.90;;;16.27;;
20034;SDS011;10178;48.034;9.800;2023-03-01T08:29:37;26.97;;;15.67;;
20034;SDS011;10178;48.034;9.800;2023-03-01T08:32:02;29.03;;;17.77;;
20034;SDS011;10178;48.034;9.800;2023-03-01T08:34:28;28.03;;;16.83;;
20034;SDS011;10178;48.034;9.800;2023-03-01T08:36:54;25.63;;;16.20;;
20034;SDS011;10178;48.034;9.800;2023-03-01T08:39:21;25.53;;;15.87;;
20034;SDS011;10178;48.034;9.800;2023-03-01T08:41:47;26.70;;;16.90;;
20034;SDS011;10178;48.034;9.800;2023-03-01T08:44:13;26.57;;;16.43;;
20034;SDS011;10178;48.034;9.800;2023-03-01T08:46:41;25.33;;;16.47;;
20034;SDS011;10178;48.034;9.800;2023-03-01T08:49:08;25.27;;;15.73;;
20034;SDS011;10178;48.034;9.800;2023-03-01T08:51:39;25.37;;;16.83;;
20034;SDS011;10178;48.034;9.800;2023-03-01T08:54:05;26.07;;;16.07;;
20034;SDS011;10178;48.034;9.800;2023-03-01T08:56:35;23.90;;;16.17;;
20034;SDS011;10178;48.034;9.800;2023-03-01T08:59:01;27.30;;;15.67;;
20034;SDS011;10178;48.034;9.800;2023-03-01T09:01:28;24.97;;;16.17;;
20034;SDS011;10178;48.034;9.800;2023-03-01T09:03:53;27.80;;;16.83;;
20034;SDS011;10178;48.034;9.800;2023-03-01T09:06:19;24.00;;;14.97;;
20034;SDS011;10178;48.034;9.800;2023-03-01T09:08:46;27.67;;;15.83;;
20034;SDS011;10178;48.034;9.800;2023-03-01T09:11:16;27.70;;;17.50;;
20034;SDS011;10178;48.034;9.800;2023-03-01T09:13:44;23.73;;;15.43;;
20034;SDS011;10178;48.034;9.800;2023-03-01T09:16:12;23.13;;;15.70;;
20034;SDS011;10178;48.034;9.800;2023-03-01T09:18:39;29.67;;;16.93;;
20034;SDS011;10178;48.034;9.800;2023-03-01T09:21:06;24.93;;;16.00;;
20034;SDS011;10178;48.034;9.800;2023-03-01T09:23:37;27.00;;;14.80;;
20034;SDS011;10178;48.034;9.800;2023-03-01T09:26:25;28.30;;;17.13;;
20034;SDS011;10178;48.034;9.800;2023-03-01T09:28:51;28.33;;;18.13;;
20034;SDS011;10178;48.034;9.800;2023-03-01T09:31:20;29.47;;;17.07;;
20034;SDS011;10178;48.034;9.800;2023-03-01T09:33:47;27.33;;;16.83;;
20034;SDS011;10178;48.034;9.800;2023-03-01T09:36:15;30.43;;;18.13;;
20034;SDS011;10178;48.034;9.800;2023-03-01T09:38:42;29.53;;;17.07;;
20034;SDS011;10178;48.034;9.800;2023-03-01T09:41:33;26.87;;;17.30;;
20034;SDS011;10178;48.034;9.800;2023-03-01T09:43:59;27.93;;;18.17;;
20034;SDS011;10178;48.034;9.800;2023-03-01T09:46:31;31.20;;;18.80;;
20034;SDS011;10178;48.034;9.800;2023-03-01T09:49:02;26.23;;;16.73;;
20034;SDS011;10178;48.034;9.800;2023-03-01T09:51:33;29.67;;;17.27;;
20034;SDS011;10178;48.034;9.800;2023-03-01T09:54:01;26.40;;;17.13;;
20034;SDS011;10178;48.034;9.800;2023-03-01T09:56:52;29.10;;;17.00;;
20034;SDS011;10178;48.034;9.800;2023-03-01T09:59:30;29.67;;;18.33;;
20034;SDS011;10178;48.034;9.800;2023-03-01T10:09:55;28.37;;;17.37;;
20034;SDS011;10178;48.034;9.800;2023-03-01T10:12:23;27.63;;;16.77;;
20034;SDS011;10178;48.034;9.800;2023-03-01T10:15:00;29.70;;;17.87;;
20034;SDS011;10178;48.034;9.800;2023-03-01T10:20:10;28.43;;;17.13;;
20034;SDS011;10178;48.034;9.800;2023-03-01T10:22:48;28.10;;;16.67;;
20034;SDS011;10178;48.034;9.800;2023-03-01T10:28:40;29.00;;;17.40;;
20034;SDS011;10178;48.034;9.800;2023-03-01T10:31:16;29.53;;;16.43;;
20034;SDS011;10178;48.034;9.800;2023-03-01T10:33:45;32.20;;;17.77;;
20034;SDS011;10178;48.034;9.800;2023-03-01T10:36:12;28.80;;;16.80;;
20034;SDS011;10178;48.034;9.800;2023-03-01T10:38:49;31.13;;;17.13;;
20034;SDS011;10178;48.034;9.800;2023-03-01T10:41:20;28.43;;;16.60;;
20034;SDS011;10178;48.034;9.800;2023-03-01T10:43:50;27.97;;;17.03;;
20034;SDS011;10178;48.034;9.800;2023-03-01T10:46:22;26.17;;;16.20;;
20034;SDS011;10178;48.034;9.800;2023-03-01T10:51:43;31.60;;;18.47;;
20034;SDS011;10178;48.034;9.800;2023-03-01T10:54:32;27.50;;;16.53;;
20034;SDS011;10178;48.034;9.800;2023-03-01T10:57:10;28.13;;;16.83;;
20034;SDS011;10178;48.034;9.800;2023-03-01T11:00:02;27.43;;;17.07;;
20034;SDS011;10178;48.034;9.800;2023-03-01T11:02:49;31.70;;;18.23;;
20034;SDS011;10178;48.034;9.800;2023-03-01T11:05:26;26.03;;;16.33;;
20034;SDS011;10178;48.034;9.800;2023-03-01T11:07:56;29.57;;;16.87;;
20034;SDS011;10178;48.034;9.800;2023-03-01T11:10:27;28.70;;;17.53;;
20034;SDS011;10178;48.034;9.800;2023-03-01T11:16:01;28.47;;;15.80;;
20034;SDS011;10178;48.034;9.800;2023-03-01T11:18:30;28.73;;;16.63;;
20034;SDS011;10178;48.034;9.800;2023-03-01T11:20:56;27.47;;;16.90;;
20034;SDS011;10178;48.034;9.800;2023-03-01T11:23:24;36.00;;;18.87;;
20034;SDS011;10178;48.034;9.800;2023-03-01T11:25:56;27.57;;;15.80;;
20034;SDS011;10178;48.034;9.800;2023-03-01T11:28:24;28.63;;;16.97;;
20034;SDS011;10178;48.034;9.800;2023-03-01T11:30:55;28.70;;;16.93;;
20034;SDS011;10178;48.034;9.800;2023-03-01T11:39:22;27.80;;;15.60;;
20034;SDS011;10178;48.034;9.800;2023-03-01T11:42:10;30.50;;;16.50;;
20034;SDS011;10178;48.034;9.800;2023-03-01T11:44:39;25.10;;;15.27;;
20034;SDS011;10178;48.034;9.800;2023-03-01T11:52:39;28.80;;;16.43;;
20034;SDS011;10178;48.034;9.800;2023-03-01T11:57:59;27.73;;;17.13;;
20034;SDS011;10178;48.034;9.800;2023-03-01T12:06:54;29.87;;;17.03;;
20034;SDS011;10178;48.034;9.800;2023-03-01T12:23:18;30.60;;;17.73;;
20034;SDS011;10178;48.034;9.800;2023-03-01T12:25:48;29.13;;;17.07;;
20034;SDS011;10178;48.034;9.800;2023-03-01T12:50:31;28.80;;;17.93;;
20034;SDS011;10178;48.034;9.800;2023-03-01T12:53:05;30.40;;;16.23;;
20034;SDS011;10178;48.034;9.800;2023-03-01T12:55:37;26.43;;;16.33;;
20034;SDS011;10178;48.034;9.800;2023-03-01T13:08:48;33.50;;;19.10;;
20034;SDS011;10178;48.034;9.800;2023-03-01T13:11:23;33.50;;;19.83;;
20034;SDS011;10178;48.034;9.800;2023-03-01T13:13:49;31.57;;;18.67;;
20034;SDS011;10178;48.034;9.800;2023-03-01T13:16:39;33.10;;;20.53;;
20034;SDS011;10178;48.034;9.800;2023-03-01T13:21:38;35.03;;;20.23;;
20034;SDS011;10178;48.034;9.800;2023-03-01T13:24:04;33.23;;;19.20;;
20034;SDS011;10178;48.034;9.800;2023-03-01T13:27:22;30.47;;;19.53;;
20034;SDS011;10178;48.034;9.800;2023-03-01T13:29:44;36.60;;;21.40;;
20034;SDS011;10178;48.034;9.800;2023-03-01T13:32:34;32.73;;;19.50;;
20034;SDS011;10178;48.034;9.800;2023-03-01T13:35:03;29.00;;;17.37;;
20034;SDS011;10178;48.034;9.800;2023-03-01T13:37:44;31.57;;;17.60;;
20034;SDS011;10178;48.034;9.800;2023-03-01T13:42:46;33.13;;;20.30;;
20034;SDS011;10178;48.034;9.800;2023-03-01T13:45:15;31.67;;;18.47;;
20034;SDS011;10178;48.034;9.800;2023-03-01T13:48:02;38.30;;;21.40;;
20034;SDS011;10178;48.034;9.800;2023-03-01T13:50:45;32.97;;;19.13;;
20034;SDS011;10178;48.034;9.800;2023-03-01T13:53:16;28.60;;;18.17;;
20034;SDS011;10178;48.034;9.800;2023-03-01T13:55:48;30.47;;;17.90;;
20034;SDS011;10178;48.034;9.800;2023-03-01T14:00:58;31.37;;;19.20;;
20034;SDS011;10178;48.034;9.800;2023-03-01T14:03:29;32.33;;;19.10;;
20034;SDS011;10178;48.034;9.800;2023-03-01T14:06:01;31.37;;;19.83;;
20034;SDS011;10178;48.034;9.800;2023-03-01T14:08:31;33.50;;;21.27;;
20034;SDS011;10178;48.034;9.800;2023-03-01T14:19:26;35.03;;;21.10;;
20034;SDS011;10178;48.034;9.800;2023-03-01T14:25:20;32.20;;;19.37;;
20034;SDS011;10178;48.034;9.800;2023-03-01T14:27:50;32.43;;;18.80;;
20034;SDS011;10178;48.034;9.800;2023-03-01T14:30:22;30.13;;;18.10;;
20034;SDS011;10178;48.034;9.800;2023-03-01T14:35:25;29.80;;;19.10;;
20034;SDS011;10178;48.034;9.800;2023-03-01T14:37:55;27.90;;;17.23;;
20034;SDS011;10178;48.034;9.800;2023-03-01T14:40:23;29.97;;;18.27;;
20034;SDS011;10178;48.034;9.800;2023-03-01T14:42:52;29.60;;;18.53;;
20034;SDS011;10178;48.034;9.800;2023-03-01T14:45:19;34.00;;;22.00;;
20034;SDS011;10178;48.034;9.800;2023-03-01T14:47:45;34.87;;;21.43;;
20034;SDS011;10178;48.034;9.800;2023-03-01T14:50:25;29.90;;;19.23;;
20034;SDS011;10178;48.034;9.800;2023-03-01T14:52:56;33.80;;;19.03;;
20034;SDS011;10178;48.034;9.800;2023-03-01T14:55:47;28.33;;;17.80;;
20034;SDS011;10178;48.034;9.800;2023-03-01T14:58:18;34.43;;;19.87;;
20034;SDS011;10178;48.034;9.800;2023-03-01T15:01:02;33.27;;;20.00;;
20034;SDS011;10178;48.034;9.800;2023-03-01T15:03:33;33.80;;;19.50;;
20034;SDS011;10178;48.034;9.800;2023-03-01T15:06:02;36.03;;;21.10;;
20034;SDS011;10178;48.034;9.800;2023-03-01T15:08:30;30.67;;;18.30;;
20034;SDS011;10178;48.034;9.800;2023-03-01T15:13:39;37.27;;;21.53;;
20034;SDS011;10178;48.034;9.800;2023-03-01T15:18:32;39.10;;;21.73;;
20034;SDS011;10178;48.034;9.800;2023-03-01T15:21:06;34.40;;;20.03;;
20034;SDS011;10178;48.034;9.800;2023-03-01T15:23:40;34.60;;;23.53;;
20034;SDS011;10178;48.034;9.800;2023-03-01T15:26:06;31.47;;;20.23;;
20034;SDS011;10178;48.034;9.800;2023-03-01T15:28:49;35.40;;;21.93;;
20034;SDS011;10178;48.034;9.800;2023-03-01T15:31:23;35.83;;;21.83;;
20034;SDS011;10178;48.034;9.800;2023-03-01T15:33:50;33.20;;;20.47;;
20034;SDS011;10178;48.034;9.800;2023-03-01T15:42:44;39.73;;;22.10;;
20034;SDS011;10178;48.034;9.800;2023-03-01T15:47:45;32.23;;;19.90;;
20034;SDS011;10178;48.034;9.800;2023-03-01T15:53:05;33.70;;;21.37;;
20034;SDS011;10178;48.034;9.800;2023-03-01T15:55:33;32.13;;;20.33;;
20034;SDS011;10178;48.034;9.800;2023-03-01T16:00:25;35.10;;;22.03;;
20034;SDS011;10178;48.034;9.800;2023-03-01T16:02:51;32.03;;;20.30;;
20034;SDS011;10178;48.034;9.800;2023-03-01T16:05:19;36.00;;;21.77;;
20034;SDS011;10178;48.034;9.800;2023-03-01T16:07:48;34.53;;;22.33;;
20034;SDS011;10178;48.034;9.800;2023-03-01T16:10:14;33.80;;;22.10;;
20034;SDS011;10178;48.034;9.800;2023-03-01T16:12:40;33.13;;;21.47;;
20034;SDS011;10178;48.034;9.800;2023-03-01T16:15:17;34.03;;;21.57;;
20034;SDS011;10178;48.034;9.800;2023-03-01T16:17:47;31.83;;;19.50;;
20034;SDS011;10178;48.034;9.800;2023-03-01T16:20:13;34.73;;;22.43;;
20034;SDS011;10178;48.034;9.800;2023-03-01T16:22:42;36.13;;;22.37;;
20034;SDS011;10178;48.034;9.800;2023-03-01T16:25:13;29.43;;;19.60;;
20034;SDS011;10178;48.034;9.800;2023-03-01T16:27:44;36.23;;;22.53;;
20034;SDS011;10178;48.034;9.800;2023-03-01T16:30:12;36.87;;;22.23;;
20034;SDS011;10178;48.034;9.800;2023-03-01T16:32:39;27.47;;;18.57;;
20034;SDS011;10178;48.034;9.800;2023-03-01T16:35:08;30.07;;;18.83;;
20034;SDS011;10178;48.034;9.800;2023-03-01T16:37:35;25.57;;;18.23;;
20034;SDS011;10178;48.034;9.800;2023-03-01T16:40:01;26.00;;;18.17;;
20034;SDS011;10178;48.034;9.800;2023-03-01T16:42:30;26.23;;;18.20;;
20034;SDS011;10178;48.034;9.800;2023-03-01T16:44:59;39.47;;;21.97;;
20034;SDS011;10178;48.034;9.800;2023-03-01T16:47:25;34.47;;;22.13;;
20034;SDS011;10178;48.034;9.800;2023-03-01T16:49:51;24.10;;;16.77;;
20034;SDS011;10178;48.034;9.800;2023-03-01T16:52:17;29.40;;;18.90;;